首页
METAR-TAF:

METAR-TAF

机场 :

南特, 法国

纬度: 47-10N, 经度: 001-36W, 海拔: 27米

当前天气观测

该预报发布于39分钟前的05:30 UTC
风速6节,风向东北,在东转东北之间变化
温度 14°C
湿度 67%
气压 1033 hPa
能见度10公里或以上
1500米以下无云,无积雨云

METAR: LFRS 250530Z AUTO 04006KT 010V070 CAVOK 14/08 Q1033 NOSIG

时间: 08:09 (06:09 UTC)

预报

该预报发布于1小时和9分钟前的05:00 UTC
预报有效从25日的 06点(UTC)到 26日的 12点(UTC)
风速10节,风向东北
能见度10公里或以上
1500米以下无云,无积雨云

TAF: LFRS 250500Z 2506/2612 04010KT CAVOK

超过4000个机场的气象观测和天气预报(METAR&TAF报告)。

可查询的气象台以黄色和红色小点在地图上表示。

将鼠标移到小点上方,可查看气象台名称。

然后点击查看天气观测和预报。

如需切换地图:点击带黑十字的绿色按钮放大地图;点击带横线的绿色按钮缩小地图;或者点击绿色箭头查看邻近地区的地图。


METAR-TAF: